Worthington, Pennsylvania
Current Conditions -  °F | °C
As of 11:35 AM on Tuesday 21 Oct 2014 (Local Time) from KBTP Reporting Station
Overcast Overcast  
Wind Chill: 50°   Ceiling: 5000
Heat Index: 50°   Visibility: 10mi
Dew Point: 46°   Wind: 5mph
Humidity: 87%   Direction: 300°WNW
Pressure: 29.91"   Gusts: NA
Location:  40.84°N, 79.63°W
Report Text: KBTP 211535Z AUTO 30004KT 10SM BKN050 OVC065 10/08 A2991 RMK AO1 P0001
Loading
Personal Weather Stations






























Interactive Weather Map
Tropical Storm Tracking
New forecast layout! Learn more

10-Day Weather Forecast

Advertisements
Track Severe Weather on mobile